Date,TemperatureHighF,TemperatureAvgF,TemperatureLowF,DewpointHighF,DewpointAvgF,DewpointLowF,HumidityHigh,HumidityAvg,HumidityLow,PressureMaxIn,PressureMinIn,WindSpeedMaxMPH,WindSpeedAvgMPH,GustSpeedMaxMPH,PrecipitationSumIn
2013-1-1,42.8,26.2,9.3,22.1,6.8,-9.5,68,45,22,29.87,29.61,19,7,30,0.00
2013-1-2,31.8,13.4,0.5,10.7,-5.2,-23.0,54,43,30,30.06,29.82,15,6,22,0.00
2013-1-3,26.4,8.6,-0.8,-8.6,-16.7,-23.6,52,31,19,30.07,29.90,12,5,18,0.00
2013-1-4,58.6,15.0,-1.5,34.9,2.4,-15.1,68,57,39,30.11,29.80,14,3,16,0.00
2013-1-5,44.8,30.0,15.8,19.4,11.6,3.0,62,47,24,30.26,29.80,16,6,24,0.00
2013-1-6,50.2,24.8,15.1,24.0,13.8,4.5,71,62,32,30.21,29.93,10,2,10,0.00
2013-1-7,40.8,27.2,11.7,25.6,11.5,-0.5,74,53,28,30.39,29.95,14,4,20,0.00
2013-1-8,46.4,26.0,6.8,24.4,10.3,-4.0,68,53,31,30.38,30.25,9,3,14,0.00
2013-1-9,41.9,31.8,14.5,28.3,20.3,5.6,72,62,50,30.41,29.97,12,5,17,0.00
2013-1-10,48.0,38.6,25.5,24.9,19.7,13.5,60,47,32,30.55,30.01,21,12,30,0.00
2013-1-11,44.8,30.7,19.8,31.2,19.7,12.2,81,64,44,30.54,30.22,8,2,11,0.14
2013-1-12,43.9,35.9,32.0,37.2,31.0,26.9,86,82,74,30.24,30.13,4,1,5,0.04
2013-1-13,46.2,39.9,34.0,43.2,36.0,29.4,90,86,83,30.17,29.97,8,2,11,0.00
2013-1-14,44.6,42.4,40.5,41.7,39.7,37.8,91,90,89,29.99,29.85,12,3,19,0.00
2013-1-15,50.2,28.8,24.4,29.9,16.9,14.2,71,61,38,30.35,30.25,8,1,8,0.00
2013-1-16,32.7,28.7,23.2,25.4,21.6,17.1,81,74,68,30.26,29.81,4,0,4,0.00
2013-1-17,50.7,31.8,22.6,29.6,22.0,16.9,80,69,40,29.95,29.81,12,2,17,0.21
2013-1-18,27.3,16.0,7.0,1.2,-13.0,-22.0,45,27,18,30.40,30.08,14,6,14,0.01
2013-1-19,47.3,38.3,14.2,21.4,16.5,-3.3,53,42,26,30.31,29.84,15,6,20,0.00
2013-1-20,53.4,35.1,22.1,30.4,13.4,-4.5,69,42,19,29.93,29.53,24,9,36,0.09
2013-1-21,34.5,22.0,12.2,9.6,-3.4,-16.2,65,35,18,30.07,29.81,14,4,21,0.00
2013-1-22,32.9,17.2,1.0,14.1,-0.3,-16.2,68,49,18,30.05,29.76,15,5,22,0.00
2013-1-23,17.4,3.8,-6.5,-8.4,-23.1,-32.6,48,27,18,30.12,30.03,15,6,24,0.00
2013-1-24,19.8,4.9,-10.1,-11.9,-24.1,-32.5,36,24,18,30.21,30.05,20,9,32,0.00
2013-1-25,25.9,12.0,0.3,-1.6,-16.5,-24.5,52,26,18,30.30,30.06,19,6,25,0.00
2013-1-26,27.5,14.7,6.3,1.1,-10.4,-19.6,55,34,18,30.21,30.00,20,9,27,0.00
2013-1-27,31.6,18.0,9.1,-3.8,-11.4,-21.8,45,27,18,30.47,30.20,16,8,21,0.00
2013-1-28,26.8,17.0,6.4,13.6,1.4,-19.9,73,52,23,30.46,30.03,5,1,7,0.00
2013-1-29,42.6,28.5,14.7,26.1,18.7,6.1,82,67,42,30.22,30.05,6,1,8,0.11
2013-1-30,52.5,37.9,30.9,49.7,33.8,26.1,91,85,80,30.15,29.42,10,2,12,0.04
2013-1-31,57.7,43.3,27.0,54.4,26.2,-4.3,92,56,24,29.55,28.91,23,14,44,1.71
2013-2-1,37.4,25.7,15.4,9.3,-0.4,-7.5,49,32,18,30.07,29.55,22,9,27,0.07
2013-2-2,29.7,21.2,8.2,7.1,-4.6,-10.7,51,32,20,30.22,30.02,10,5,19,0.00
2013-2-3,33.1,23.5,11.8,13.9,7.1,0.7,65,49,34,30.04,29.72,6,2,8,0.00
2013-2-4,34.5,22.2,14.7,9.8,-3.1,-13.7,60,35,18,29.90,29.71,20,7,29,0.00
2013-2-5,33.3,19.1,5.4,10.8,-3.7,-10.7,56,37,21,30.03,29.89,7,2,10,0.00
2013-2-6,45.5,26.8,16.7,27.9,7.5,-15.4,72,46,21,30.31,29.92,13,5,25,0.00
2013-2-7,32.2,19.3,8.1,-3.6,-12.6,-20.7,30,23,18,30.54,30.30,12,4,14,0.00
2013-2-8,20.5,16.9,14.0,8.7,2.8,-11.9,70,56,23,30.48,29.80,11,5,21,0.00
2013-2-9,19.0,14.7,10.2,10.6,5.9,-2.0,71,67,55,30.22,29.74,19,13,27,0.00
2013-2-10,45.7,22.4,7.7,9.4,-3.4,-9.5,57,34,18,30.41,30.21,15,6,21,0.00
2013-2-11,27.7,19.4,7.7,21.4,9.1,-7.9,78,64,47,30.33,29.63,4,1,6,0.00
2013-2-12,49.5,37.1,27.0,28.4,24.1,21.0,83,60,39,29.86,29.60,18,7,26,0.06
2013-2-13,51.8,33.7,21.9,28.1,16.4,10.4,64,50,28,29.87,29.74,9,4,13,0.00
2013-2-14,48.2,25.9,21.4,22.9,12.6,9.9,65,57,25,29.98,29.73,12,2,12,0.00
2013-2-15,56.5,34.3,16.7,29.0,17.2,7.4,73,52,24,29.99,29.89,14,3,17,0.00
2013-2-16,48.6,33.5,24.4,31.3,16.9,-1.8,79,52,29,29.98,29.75,12,5,17,0.01
2013-2-17,24.4,18.1,12.0,4.5,-6.1,-14.5,61,34,21,29.78,29.43,26,17,46,0.18
2013-2-18,34.3,19.9,10.2,-3.1,-10.2,-19.0,39,26,18,30.12,29.68,23,13,33,0.04
2013-2-19,48.6,31.8,14.7,32.7,9.1,-18.0,83,43,18,30.16,29.58,8,3,13,0.11
2013-2-20,40.8,30.7,22.6,29.3,13.5,5.2,82,50,28,29.75,29.53,15,7,21,0.01
2013-2-21,33.8,24.2,18.9,8.7,3.9,-4.8,59,42,23,30.23,29.74,21,11,32,0.00
2013-2-22,50.2,32.3,15.1,24.0,12.2,5.2,70,46,21,30.41,30.22,12,4,17,0.00
2013-2-23,34.7,31.4,26.2,27.0,22.2,13.5,82,69,55,30.33,29.96,7,2,12,0.02
2013-2-24,36.0,31.9,29.5,29.2,27.0,25.0,84,82,75,29.96,29.77,6,0,11,0.00
2013-2-25,57.4,35.0,26.4,40.6,26.4,20.7,84,72,40,30.24,29.91,6,2,9,0.24
2013-2-26,48.9,34.4,28.8,35.1,26.2,22.6,85,73,51,30.35,30.19,8,2,9,0.00
2013-2-27,32.4,31.5,30.7,25.1,24.7,-19.2,78,76,73,30.20,30.13,10,3,99,0.00
2013-2-28,50.5,35.9,30.4,37.1,29.1,26.1,84,76,55,29.65,29.55,6,2,8,0.32
2013-3-1,44.2,35.1,30.4,31.3,24.5,20.8,82,66,53,29.72,29.55,13,6,19,0.01
2013-3-2,47.1,34.8,29.1,27.3,21.1,17.6,67,58,40,29.71,29.65,13,7,16,0.00
2013-3-3,47.7,32.9,25.7,28.9,20.2,15.9,68,60,43,29.67,29.59,13,6,17,0.00
2013-3-4,40.5,30.8,26.4,23.2,17.1,13.5,74,57,41,29.80,29.62,18,11,27,0.00
2013-3-5,53.4,35.8,25.7,26.3,20.4,13.2,72,55,30,30.09,29.80,16,6,19,0.00
2013-3-6,38.1,34.1,31.1,28.6,24.6,20.2,82,68,53,30.20,30.08,13,6,24,0.01
2013-3-7,36.0,30.9,28.6,25.3,22.9,19.5,83,72,56,30.16,30.06,11,6,18,0.00
2013-3-8,43.9,33.6,26.6,30.7,23.7,14.6,84,68,50,30.22,30.01,11,6,17,0.09
2013-3-9,66.0,40.9,19.4,28.3,17.1,10.3,72,44,14,30.38,30.19,9,4,14,0.00
2013-3-10,59.7,36.7,17.8,36.1,21.6,9.4,80,57,24,30.43,30.28,9,4,13,0.00
2013-3-11,60.1,42.0,29.3,33.3,27.6,22.6,82,59,25,30.31,30.13,10,5,13,0.00
2013-3-12,49.6,44.6,38.5,47.2,41.4,32.8,92,88,77,30.15,29.73,11,5,14,0.31
2013-3-13,49.5,49.5,49.5,47.2,47.2,47.2,92,92,92,29.80,29.74,11,11,12,0.31
2013-3-14,49.5,49.5,49.5,47.2,47.2,47.2,92,92,92,29.78,29.75,11,11,12,0.31
2013-3-17,20.5,19.0,17.6,-8.3,-12.2,-14.9,27,24,21,30.32,30.27,8,6,8,0.00
2013-3-18,48.4,27.1,7.2,16.6,-2.4,-14.4,59,30,17,30.46,30.24,8,4,8,0.00
2013-3-19,33.4,29.8,24.6,28.2,24.6,16.9,84,81,63,30.23,29.72,8,2,8,0.02
2013-3-20,43.0,30.3,21.2,27.7,14.8,7.7,81,55,33,29.79,29.69,18,5,18,0.01
2013-3-21,52.0,30.8,16.7,18.1,8.4,4.1,66,43,18,29.80,29.63,8,3,8,0.00
2013-3-22,51.1,30.1,22.3,14.4,10.2,8.2,57,46,20,29.69,29.63,10,6,10,0.00
2013-3-23,43.5,35.8,24.6,20.2,14.0,11.0,60,41,28,29.78,29.66,24,10,28,0.00
2013-3-24,50.7,38.6,27.1,23.1,16.9,-20.7,62,43,10,29.85,29.77,24,9,27,0.00
2013-3-25,50.4,34.4,19.9,27.5,20.3,12.4,72,57,37,29.80,29.57,8,3,13,0.00
2013-3-26,58.3,42.0,32.4,33.7,18.2,9.9,69,42,18,29.81,29.59,15,6,18,0.00
2013-3-27,42.4,40.2,36.1,28.5,17.3,15.0,70,40,35,29.91,29.78,12,4,17,0.00
2013-3-28,55.9,41.1,32.4,35.1,28.5,23.1,82,63,33,30.04,29.90,12,4,16,0.01
2013-3-29,64.0,45.2,32.5,36.0,28.7,23.2,72,55,29,30.07,30.01,16,5,19,0.00
2013-3-30,68.4,41.3,29.3,59.4,25.7,15.6,75,58,18,30.10,30.03,14,4,14,0.00
2013-3-31,61.2,41.4,0.0,35.3,30.6,13.2,86,69,18,30.13,29.80,14,4,15,0.06
2013-4-1,63.1,43.4,30.2,46.1,33.6,3.2,94,72,26,29.80,29.54,18,6,24,0.27
2013-4-2,44.4,33.0,24.8,17.3,7.6,1.8,50,35,19,29.89,29.18,20,9,30,0.00
2013-4-3,47.7,35.8,24.8,14.7,5.9,-2.5,57,30,18,30.14,29.88,20,11,28,0.01
2013-4-4,57.2,42.5,23.9,20.3,11.6,5.7,52,30,17,30.29,29.98,12,6,17,0.00
2013-4-5,65.8,46.2,31.6,28.8,21.0,12.8,66,41,15,29.98,29.68,16,8,24,0.00
2013-4-6,46.8,34.7,23.7,17.9,5.8,-3.7,54,32,18,30.33,29.91,20,10,29,0.00
2013-4-7,58.8,38.6,19.4,36.8,19.6,8.3,77,49,21,30.33,29.95,21,6,27,0.00
2013-4-8,66.7,50.7,36.0,42.3,32.4,22.8,90,54,23,30.11,29.95,16,5,22,0.00
2013-4-9,68.5,51.5,39.7,51.1,40.4,34.0,91,68,41,30.09,29.90,16,4,21,0.07
2013-4-10,64.0,50.4,43.3,51.5,43.8,38.6,94,80,53,30.02,29.88,7,2,9,0.50
2013-4-11,50.5,41.6,36.5,43.0,35.6,23.6,93,80,41,30.17,29.88,13,4,14,0.04
2013-4-12,36.7,32.9,31.3,29.4,27.5,24.2,88,81,70,30.21,29.86,5,2,9,0.07
2013-4-13,32.4,29.9,0.0,29.2,29.2,29.2,88,81,88,29.88,29.80,4,4,4,0.07
2013-4-21,51.8,37.0,28.6,20.1,15.4,8.4,68,44,22,30.66,30.54,7,2,8,41.16
2013-4-22,54.9,40.3,23.5,32.7,21.4,12.2,83,52,20,30.75,30.60,13,5,19,0.00
2013-4-23,40.6,35.9,27.0,37.4,32.0,21.9,94,85,76,30.60,30.15,9,3,11,0.00
2013-4-24,79.9,59.5,39.0,51.0,41.9,27.4,95,59,16,30.15,29.74,14,6,22,0.00
2013-4-25,59.4,57.4,54.5,49.4,48.6,47.2,79,73,64,29.81,29.75,15,9,18,0.00
2013-4-26,64.6,47.8,27.1,39.1,29.0,21.8,86,53,24,30.42,30.28,8,3,8,0.00
2013-4-27,71.4,53.4,30.2,42.3,32.4,26.7,89,51,19,30.41,30.25,8,3,8,0.00
2013-4-28,71.8,52.3,32.9,43.5,34.4,28.6,92,53,23,30.33,30.18,9,3,9,0.00
2013-4-29,75.6,57.5,38.7,46.6,36.8,27.7,83,49,27,30.25,30.14,11,4,17,0.00
2013-4-30,77.7,61.8,44.6,40.1,27.8,12.2,62,31,10,30.36,30.23,10,4,15,0.00
2013-5-1,79.0,58.8,33.4,42.4,29.7,18.5,85,40,11,30.45,30.35,11,4,16,0.00
2013-5-2,86.9,59.9,37.4,49.1,37.4,27.8,87,49,14,30.50,30.31,11,3,17,0.00
2013-5-3,69.6,53.8,34.5,46.1,38.8,30.5,91,60,33,30.53,30.37,8,4,13,0.00
2013-5-4,74.1,54.9,35.4,50.7,37.5,27.7,96,58,20,30.37,30.25,11,4,15,0.00
2013-5-5,72.3,53.0,28.9,44.5,34.1,26.4,95,55,19,30.34,30.20,10,4,14,0.00
2013-5-6,77.5,56.9,30.4,48.0,35.6,22.8,95,54,14,30.27,30.11,9,3,12,0.00
2013-5-7,84.7,64.8,40.1,57.0,43.7,22.0,96,57,11,30.17,30.05,8,3,14,0.00
2013-5-8,79.3,63.9,48.7,63.2,55.8,47.4,95,77,48,30.21,30.04,15,4,27,0.02
2013-5-9,70.3,61.1,55.9,60.7,57.2,54.8,97,88,67,30.04,29.87,10,2,14,0.43
2013-5-10,57.7,57.1,57.0,56.6,56.2,56.1,97,97,96,29.93,29.89,3,0,4,0.00
2013-5-11,58.6,56.0,53.1,34.9,33.7,32.3,48,43,39,30.08,30.06,13,7,13,0.00
2013-5-12,71.1,49.1,44.6,48.2,27.7,24.0,53,43,36,30.08,29.57,21,5,21,41.73
2013-5-13,58.5,46.7,38.5,34.2,28.5,23.2,68,50,29,30.05,29.80,14,6,21,0.00
2013-5-14,62.4,49.7,31.6,39.5,30.4,22.3,88,52,24,30.06,29.98,13,6,21,0.00
2013-5-15,71.4,58.6,34.3,50.8,41.7,23.5,97,62,18,30.04,29.65,14,5,22,0.12
2013-5-16,80.1,61.2,43.2,56.9,39.2,29.0,99,54,19,29.84,29.62,20,6,22,0.01
2013-5-17,71.1,57.2,44.6,45.0,38.9,31.8,81,53,28,30.23,29.84,14,6,21,0.00
2013-5-18,80.8,59.6,36.5,52.8,40.4,27.3,98,58,19,30.31,30.21,9,2,12,0.00
2013-5-19,76.8,58.2,47.5,55.4,50.3,44.7,97,77,43,30.35,30.20,9,3,14,0.07
2013-5-20,86.4,66.7,54.1,65.3,59.0,53.3,99,79,44,30.20,29.93,8,3,12,0.05
2013-5-21,80.4,61.3,49.6,66.8,56.9,48.0,98,87,59,30.08,29.89,9,2,14,0.34
2013-5-22,63.5,55.0,49.5,58.6,53.4,49.1,99,95,82,30.04,29.90,8,2,11,0.64
2013-5-23,77.5,61.5,51.1,68.7,59.4,50.8,99,93,72,29.94,29.77,9,4,15,0.21
2013-5-24,70.9,67.6,62.8,69.2,65.0,61.9,99,91,88,29.87,29.65,7,2,9,0.11
2013-5-25,69.4,55.6,35.4,65.8,52.6,33.2,95,90,85,29.86,29.74,16,6,23,0.83
2013-5-26,57.4,46.1,36.1,43.7,38.0,34.9,99,75,51,30.09,29.72,18,9,25,0.14
2013-5-27,73.2,55.9,33.1,51.8,36.6,27.5,99,56,21,30.20,30.08,13,5,23,0.00
2013-5-28,78.6,59.1,35.8,51.6,41.6,34.2,99,60,22,30.26,30.14,8,2,12,0.00
2013-5-29,60.8,53.2,49.5,58.7,51.3,44.7,98,93,82,30.18,30.06,3,1,4,0.14
2013-5-30,90.7,75.6,56.3,71.1,62.2,56.0,99,68,39,30.08,30.01,17,4,17,0.01
2013-5-31,97.0,86.0,60.3,70.6,62.9,59.1,96,49,32,30.10,29.93,9,3,14,0.00
2013-6-1,97.7,82.5,63.3,70.1,65.3,59.9,93,60,32,29.98,29.85,12,4,16,0.00
2013-6-2,94.1,77.9,65.8,72.7,66.6,62.8,99,72,40,29.87,29.68,16,5,29,0.52
2013-6-3,83.7,68.8,53.6,69.5,58.9,45.2,99,74,40,29.85,29.76,10,4,22,0.00
2013-6-4,73.6,60.5,45.7,47.6,43.2,37.7,82,55,33,30.11,29.84,13,6,22,0.00
2013-6-5,79.3,64.5,44.1,52.0,43.5,32.9,97,54,21,30.21,30.08,8,3,13,0.00
2013-6-7,55.8,52.6,49.5,53.5,51.6,48.3,99,97,89,30.12,29.90,5,2,5,0.93
2013-6-8,79.5,63.1,50.4,62.2,56.7,50.1,99,82,54,30.01,29.70,17,5,17,0.41
2013-6-9,82.9,68.2,51.6,64.3,54.9,51.3,99,67,39,30.18,30.02,10,3,10,0.01
2013-6-10,77.2,61.8,49.1,59.8,55.9,48.8,99,83,54,30.22,30.04,9,2,9,0.15
2013-6-11,63.0,56.9,53.6,58.0,55.4,52.8,99,95,84,30.03,29.60,4,1,4,0.71
2013-6-12,70.0,61.1,54.1,57.9,54.0,51.6,99,79,59,29.84,29.58,17,6,17,0.02
2013-6-13,75.7,55.0,47.1,58.5,53.2,46.6,99,94,53,29.83,29.73,11,1,13,0.19
2013-6-14,80.1,63.9,51.3,60.7,53.8,50.6,99,73,39,29.81,29.70,7,2,13,0.13
2013-6-15,59.4,57.9,56.3,53.0,50.8,48.1,81,77,73,29.84,29.80,5,3,8,0.00
2013-6-16,82.9,64.8,48.9,59.8,54.3,47.2,97,72,38,29.94,29.71,10,3,10,0.00
2013-6-17,88.2,69.1,54.0,65.3,59.0,53.1,97,75,36,29.90,29.78,12,3,12,0.11
2013-6-18,72.0,60.5,53.1,61.4,56.4,52.5,99,87,69,29.99,29.90,10,2,10,0.01
2013-6-19,79.9,64.2,46.4,55.7,48.9,43.2,99,64,32,30.16,29.94,8,3,8,0.00
2013-6-20,85.1,65.6,43.7,56.2,48.0,43.2,99,60,29,30.28,30.17,11,2,11,0.00
2013-6-21,86.4,73.0,51.6,62.3,54.7,46.2,96,57,31,30.25,30.20,8,2,9,0.00
2013-6-22,90.5,73.0,52.7,68.7,61.0,52.2,98,69,41,30.24,30.10,9,2,14,0.00
2013-6-23,95.5,76.8,63.0,76.6,67.3,61.2,96,75,45,30.16,29.96,10,2,17,0.02
2013-6-24,97.9,81.7,67.6,74.2,68.9,65.5,96,70,39,30.01,29.89,10,4,14,0.02
2013-6-25,95.4,80.2,66.2,72.2,67.5,64.0,96,69,42,29.96,29.75,9,3,14,0.11
2013-6-26,86.2,69.9,64.2,74.3,67.8,63.4,99,94,62,29.87,29.74,6,1,9,0.17
2013-6-27,66.4,63.6,61.3,66.1,63.1,60.8,99,98,97,29.87,29.83,6,2,10,0.00
2013-7-3,89.2,74.7,61.2,74.5,68.0,60.6,99,82,56,30.21,30.12,8,2,8,0.22
2013-7-4,97.2,83.3,67.3,75.8,71.1,67.0,99,70,44,30.20,30.07,9,3,9,0.00
2013-7-5,97.9,85.4,72.9,75.0,71.7,69.4,91,66,41,30.15,30.03,8,3,8,0.00
2013-7-6,93.4,82.2,69.1,73.2,69.2,64.7,93,67,45,30.08,29.99,9,3,9,0.00
2013-7-7,96.1,79.2,64.2,75.8,68.5,63.1,97,74,38,30.03,29.91,8,2,8,0.06
2013-7-8,91.0,75.4,64.4,76.2,70.6,64.1,99,87,50,30.08,29.93,12,2,12,0.83
2013-7-9,78.1,69.5,64.0,69.9,66.8,63.2,99,91,76,30.12,30.06,6,2,11,0.00
2013-7-10,83.7,70.6,64.9,74.8,68.8,64.4,99,94,71,30.09,29.80,8,3,14,0.34
2013-7-11,70.2,69.2,68.4,69.6,68.9,68.1,99,99,98,29.81,29.77,3,1,4,0.00
2013-7-12,85.1,71.8,61.2,65.5,61.7,58.6,96,73,45,30.23,29.98,7,2,7,0.00
2013-7-13,83.3,71.9,59.0,69.6,64.2,57.5,99,79,52,30.33,30.23,7,2,7,0.00
2013-7-14,92.8,79.3,64.4,75.8,69.0,64.1,99,74,48,30.31,30.22,7,2,7,0.00
2013-7-15,96.4,81.3,65.8,75.9,68.3,65.1,99,69,42,30.23,30.12,10,3,10,0.00
2013-7-16,95.4,80.3,64.8,72.4,68.2,63.6,97,70,42,30.19,30.14,11,3,11,0.00
2013-7-17,98.8,83.9,65.3,75.3,69.8,64.7,99,64,39,30.20,29.97,8,2,11,0.00
2013-7-18,98.8,81.8,70.3,81.5,71.7,68.4,98,75,40,30.04,29.94,10,2,13,0.32
2013-7-19,98.1,83.9,68.2,78.6,72.2,67.5,99,71,42,29.97,29.70,17,4,36,0.17
2013-7-20,94.8,78.5,66.9,76.6,68.0,63.3,97,73,43,29.83,29.67,16,3,36,0.01
2013-7-21,67.1,63.9,60.8,64.1,62.0,59.7,98,93,87,29.93,29.83,2,1,4,0.00
2013-7-22,81.1,68.9,62.8,71.1,66.1,61.9,99,91,71,30.04,29.93,4,1,4,0.04
2013-7-23,79.3,68.5,64.0,71.5,66.4,63.2,99,94,77,29.92,29.57,6,2,6,1.19
2013-7-24,92.8,72.6,56.7,72.2,62.5,48.5,99,74,46,30.00,29.60,14,4,14,0.01
2013-7-25,80.4,63.5,51.6,59.5,57.3,46.6,90,81,47,30.12,30.01,5,1,8,0.00
2013-7-26,78.6,66.3,60.6,69.5,61.8,57.5,99,86,63,30.10,29.96,8,3,13,0.20
2013-7-27,89.6,72.8,54.3,69.0,60.2,53.5,99,70,35,30.06,29.99,8,2,11,0.00
2013-7-28,87.4,70.7,57.9,71.2,65.1,57.7,99,84,53,30.03,29.98,7,2,11,0.06
2013-7-29,88.7,72.3,62.4,73.5,66.6,60.6,99,84,51,30.07,29.96,8,2,11,0.01
2013-7-30,85.8,71.4,56.7,61.9,57.6,53.1,99,65,38,30.12,30.04,8,3,13,0.00
2013-7-31,88.2,71.6,54.9,69.1,59.1,54.0,99,70,34,30.16,30.04,6,2,8,0.00
2013-8-1,87.4,68.1,55.0,68.3,61.8,54.2,99,84,43,30.06,29.89,10,3,15,0.19
2013-8-2,88.2,72.5,61.2,73.4,61.3,53.1,99,72,32,29.89,29.79,11,3,15,0.21
2013-8-3,86.2,69.6,57.6,65.0,57.7,53.3,98,70,37,29.87,29.78,10,3,18,0.00
2013-8-4,83.5,67.4,53.1,64.6,55.4,50.2,98,69,40,29.91,29.80,10,4,14,0.00
2013-8-5,78.1,63.4,49.8,55.5,45.9,30.8,91,59,21,30.07,29.90,12,5,23,0.00
2013-8-6,84.0,65.6,45.1,60.0,51.5,44.3,99,66,30,30.15,30.06,7,2,11,0.00
2013-10-20,61.3,51.4,39.6,39.1,33.9,31.0,74,52,39,30.03,29.84,15,6,24,0.00
2013-10-21,70.7,50.0,31.6,47.8,37.5,29.4,96,66,33,30.12,29.97,8,3,15,0.00
2013-10-22,63.5,50.2,38.7,50.6,42.7,31.6,95,76,59,29.98,29.73,10,4,15,0.00
2013-10-23,60.6,44.1,29.8,44.5,31.7,26.2,93,65,31,29.81,29.60,6,2,9,0.00
2013-10-24,56.3,44.2,30.9,37.6,29.8,24.3,85,59,38,29.89,29.66,16,6,27,0.00
2013-10-25,54.5,38.6,26.2,42.2,26.2,19.5,92,63,35,30.13,29.89,13,4,20,0.00
2013-10-26,52.5,39.6,24.4,37.8,26.4,19.2,91,62,35,30.14,29.85,15,5,24,0.00
2013-10-27,60.4,45.4,31.8,39.2,29.9,23.8,77,56,33,30.05,29.78,12,5,20,0.00
2013-10-28,62.4,41.1,27.3,38.2,28.0,16.4,87,62,35,30.35,30.04,14,5,23,0.00
2013-10-29,55.4,33.2,18.9,32.8,16.9,7.1,86,56,19,30.47,30.35,8,2,11,0.00
2013-10-30,51.6,35.4,23.9,38.8,27.3,16.2,89,73,52,30.37,30.20,6,2,9,0.00
2013-10-31,59.9,40.5,26.8,58.2,37.7,23.4,97,90,81,30.25,29.76,11,2,16,0.07
2013-11-1,69.3,60.8,47.8,61.1,55.0,43.3,94,81,67,29.76,29.41,24,11,36,0.20
2013-11-2,71.8,52.2,38.5,51.5,42.1,37.2,97,73,33,29.78,29.61,10,3,13,0.02
2013-11-3,45.5,38.1,35.6,42.5,30.6,23.0,89,75,58,30.11,29.77,14,8,19,0.00
2013-11-11,42.6,39.2,34.9,28.2,26.3,22.8,69,60,52,29.95,29.86,5,2,7,0.00
2013-11-12,42.6,31.2,24.3,32.8,16.9,8.8,74,55,43,30.17,29.86,16,8,23,0.00
2013-11-13,25.0,24.1,22.1,10.4,9.8,9.2,57,54,51,30.19,30.15,12,9,20,0.00
2013-11-23,32.4,27.9,25.3,22.1,13.0,6.0,73,54,41,29.79,29.76,13,8,22,0.00
2013-11-24,30.0,21.2,15.3,15.7,-4.0,-16.2,82,36,19,30.16,29.77,28,15,39,0.11
2013-11-25,36.1,22.8,12.7,10.3,-5.1,-16.8,51,30,18,30.34,30.15,18,7,21,0.00
2013-11-26,37.0,31.3,26.2,28.1,19.5,7.4,87,62,41,30.30,30.06,8,3,11,0.04
2013-11-27,50.4,39.0,31.5,49.0,37.2,27.7,98,93,78,30.07,29.25,12,4,20,1.41
2013-11-28,39.4,27.7,13.3,27.7,7.5,-6.7,78,45,21,30.40,29.43,17,9,27,0.01
2013-11-29,34.3,19.6,8.6,17.7,0.8,-9.0,74,47,20,30.74,30.40,13,4,17,0.00
2013-11-30,36.9,20.5,3.7,14.0,4.0,-5.9,72,50,24,30.80,30.41,9,3,14,0.00
2013-12-1,35.8,31.2,26.1,28.7,22.3,11.2,82,70,52,30.41,30.03,7,2,9,0.00
2013-12-2,41.9,35.6,33.3,35.7,30.7,28.3,86,82,74,30.03,29.92,5,2,7,0.00
2013-12-3,54.0,37.2,28.9,39.6,28.9,22.9,91,73,41,29.95,29.86,10,4,14,0.00
2013-12-4,45.3,32.1,24.3,27.4,21.5,17.1,83,66,46,30.19,29.94,9,3,17,0.00
2013-12-5,33.8,31.6,23.9,30.5,26.4,17.8,88,81,74,30.21,29.89,3,1,4,0.01
2013-12-6,48.2,39.3,32.2,44.0,33.8,27.0,94,81,57,30.16,29.86,9,3,13,0.07
2013-12-7,38.7,30.0,18.9,28.1,20.1,7.3,85,67,48,30.42,30.06,14,3,20,0.04
2013-12-8,32.9,24.3,16.2,17.0,12.2,7.5,76,60,42,30.57,30.42,5,2,7,0.00
2013-12-9,30.9,26.3,22.3,25.8,19.3,10.6,84,75,55,30.49,29.86,3,0,5,0.00
2013-12-10,34.0,26.6,18.5,28.5,19.7,4.5,85,75,53,29.95,29.78,0,0,0,0.00
2013-12-11,39.0,23.7,12.7,18.5,7.8,3.8,74,52,25,30.14,29.95,14,3,21,0.00
2013-12-12,20.5,18.3,14.9,12.6,8.7,5.3,71,66,62,30.16,30.11,6,2,8,0.00
2013-12-13,10.6,5.8,3.6,-5.7,-12.2,-14.1,47,42,41,30.40,30.26,7,4,8,0.00
2013-12-14,17.2,7.7,0.7,3.3,-10.9,-18.3,70,43,22,30.60,30.20,8,3,12,0.00
2013-12-15,29.7,18.6,10.9,25.2,11.9,3.2,83,75,70,30.21,29.44,11,6,17,0.00
2013-12-16,33.8,18.6,5.7,20.1,1.2,-12.3,74,49,19,30.18,29.68,16,6,24,0.00
2013-12-17,18.1,5.8,-8.7,3.4,-8.8,-23.9,68,51,27,30.26,29.98,8,3,13,0.00
2013-12-18,37.9,23.3,12.4,20.6,10.5,3.3,72,59,38,30.02,29.89,14,4,17,0.00
2013-12-19,46.9,30.1,21.9,23.6,16.3,11.7,70,57,31,30.09,29.93,11,4,17,0.01
2013-12-20,43.2,34.6,27.1,29.5,24.9,18.0,80,68,52,30.09,29.89,6,2,8,0.00
2013-12-21,58.6,40.4,32.5,41.2,33.7,27.6,89,78,52,29.94,29.83,9,1,11,0.00
2013-12-22,39.7,34.4,31.3,36.8,31.1,28.2,91,88,86,30.04,29.81,11,2,16,0.08
2013-12-23,36.5,32.6,30.6,33.3,29.4,27.4,88,88,85,30.10,29.97,8,1,11,0.13
2013-12-24,41.7,29.0,17.8,30.0,13.7,-2.4,85,54,33,30.20,30.05,13,6,19,0.00
2013-12-25,28.6,15.5,5.9,1.4,-6.7,-14.5,56,38,19,30.51,30.20,14,6,21,0.00
2013-12-26,25.7,17.3,10.6,16.3,6.8,-1.9,72,63,51,30.46,30.09,4,1,6,0.00
2013-12-27,42.3,23.1,9.9,24.0,11.1,1.2,78,61,40,30.23,30.15,10,2,14,0.01
2013-12-28,47.1,29.7,14.9,27.6,19.3,7.3,79,66,42,30.18,29.96,9,3,13,0.01
2013-12-29,36.9,31.4,26.1,28.7,24.9,18.5,86,77,66,30.01,29.51,5,1,6,0.27
2013-12-30,45.9,27.8,5.9,32.3,16.7,-7.6,87,64,39,30.17,29.54,16,5,23,0.14
2013-12-31,29.7,12.2,0.0,4.7,-5.5,-15.3,67,46,22,30.17,29.99,6,2,11,0.00
2014-1-1,31.6,14.5,3.0,9.0,-1.7,-7.6,64,49,24,30.36,30.12,13,4,18,0.00
2014-1-2,11.8,8.3,-1.7,2.1,-2.6,-13.4,65,60,56,30.35,29.91,6,3,10,0.00